sensor_id;sensor_type;location;lat;lon;timestamp;temperature;humidity
58638;DHT22;54976;51.510;7.522;2023-02-13T00:01:20;9.00;99.90
58638;DHT22;54976;51.510;7.522;2023-02-13T00:04:20;9.00;99.90
58638;DHT22;54976;51.510;7.522;2023-02-13T00:07:21;9.00;99.90
58638;DHT22;54976;51.510;7.522;2023-02-13T00:10:21;9.00;99.90
58638;DHT22;54976;51.510;7.522;2023-02-13T00:13:22;9.00;99.90
58638;DHT22;54976;51.510;7.522;2023-02-13T00:16:22;9.00;99.90
58638;DHT22;54976;51.510;7.522;2023-02-13T00:19:23;8.90;99.90
58638;DHT22;54976;51.510;7.522;2023-02-13T00:22:24;9.00;99.90
58638;DHT22;54976;51.510;7.522;2023-02-13T00:25:24;9.00;99.90
58638;DHT22;54976;51.510;7.522;2023-02-13T00:28:25;8.90;99.90
58638;DHT22;54976;51.510;7.522;2023-02-13T00:31:26;9.00;99.90
58638;DHT22;54976;51.510;7.522;2023-02-13T00:34:26;9.00;99.90
58638;DHT22;54976;51.510;7.522;2023-02-13T00:37:27;8.90;99.90
58638;DHT22;54976;51.510;7.522;2023-02-13T00:40:28;9.00;99.90
58638;DHT22;54976;51.510;7.522;2023-02-13T00:43:28;8.90;99.90
58638;DHT22;54976;51.510;7.522;2023-02-13T00:46:29;8.90;99.90
58638;DHT22;54976;51.510;7.522;2023-02-13T00:49:30;8.90;99.90
58638;DHT22;54976;51.510;7.522;2023-02-13T00:52:31;8.90;99.90
58638;DHT22;54976;51.510;7.522;2023-02-13T00:55:31;8.90;99.90
58638;DHT22;54976;51.510;7.522;2023-02-13T00:58:32;8.90;99.90
58638;DHT22;54976;51.510;7.522;2023-02-13T01:01:33;8.90;99.90
58638;DHT22;54976;51.510;7.522;2023-02-13T01:04:34;9.00;99.90
58638;DHT22;54976;51.510;7.522;2023-02-13T01:07:34;9.00;99.90
58638;DHT22;54976;51.510;7.522;2023-02-13T01:10:39;9.00;99.90
58638;DHT22;54976;51.510;7.522;2023-02-13T01:13:40;9.00;99.90
58638;DHT22;54976;51.510;7.522;2023-02-13T01:16:41;9.00;99.90
58638;DHT22;54976;51.510;7.522;2023-02-13T01:19:41;9.00;99.90
58638;DHT22;54976;51.510;7.522;2023-02-13T01:22:42;9.00;99.90
58638;DHT22;54976;51.510;7.522;2023-02-13T01:25:43;8.90;99.90
58638;DHT22;54976;51.510;7.522;2023-02-13T01:28:44;9.00;99.90
58638;DHT22;54976;51.510;7.522;2023-02-13T01:31:45;8.90;99.90
58638;DHT22;54976;51.510;7.522;2023-02-13T01:34:45;8.90;99.90
58638;DHT22;54976;51.510;7.522;2023-02-13T01:37:46;8.90;99.90
58638;DHT22;54976;51.510;7.522;2023-02-13T01:40:52;8.90;99.90
58638;DHT22;54976;51.510;7.522;2023-02-13T01:46:53;9.00;99.90
58638;DHT22;54976;51.510;7.522;2023-02-13T01:53:16;9.00;99.90
58638;DHT22;54976;51.510;7.522;2023-02-13T01:56:38;9.00;99.90
58638;DHT22;54976;51.510;7.522;2023-02-13T02:02:54;8.90;99.90
58638;DHT22;54976;51.510;7.522;2023-02-13T02:05:58;8.90;99.90
58638;DHT22;54976;51.510;7.522;2023-02-13T02:09:04;8.90;99.90
58638;DHT22;54976;51.510;7.522;2023-02-13T02:12:36;8.90;99.90
58638;DHT22;54976;51.510;7.522;2023-02-13T02:15:39;8.90;99.90
58638;DHT22;54976;51.510;7.522;2023-02-13T02:18:40;8.90;99.90
58638;DHT22;54976;51.510;7.522;2023-02-13T02:29:10;8.90;99.90
58638;DHT22;54976;51.510;7.522;2023-02-13T02:39:06;9.00;99.90
58638;DHT22;54976;51.510;7.522;2023-02-13T02:52:18;8.90;99.90
58638;DHT22;54976;51.510;7.522;2023-02-13T03:02:13;8.80;99.90
58638;DHT22;54976;51.510;7.522;2023-02-13T03:05:44;8.90;99.90
58638;DHT22;54976;51.510;7.522;2023-02-13T03:09:20;8.90;99.90
58638;DHT22;54976;51.510;7.522;2023-02-13T03:13:04;8.80;99.90
58638;DHT22;54976;51.510;7.522;2023-02-13T03:16:23;8.80;99.90
58638;DHT22;54976;51.510;7.522;2023-02-13T03:27:13;8.70;99.90
58638;DHT22;54976;51.510;7.522;2023-02-13T03:37:02;8.70;99.90
58638;DHT22;54976;51.510;7.522;2023-02-13T03:40:30;8.70;99.90
58638;DHT22;54976;51.510;7.522;2023-02-13T03:43:44;8.70;99.90
58638;DHT22;54976;51.510;7.522;2023-02-13T03:46:48;8.60;99.90
58638;DHT22;54976;51.510;7.522;2023-02-13T03:49:51;8.60;99.90
58638;DHT22;54976;51.510;7.522;2023-02-13T03:53:08;8.60;99.90
58638;DHT22;54976;51.510;7.522;2023-02-13T03:56:10;8.50;99.90
58638;DHT22;54976;51.510;7.522;2023-02-13T03:59:34;8.60;99.90
58638;DHT22;54976;51.510;7.522;2023-02-13T04:02:42;8.60;99.90
58638;DHT22;54976;51.510;7.522;2023-02-13T04:05:48;8.50;99.90
58638;DHT22;54976;51.510;7.522;2023-02-13T04:08:51;8.60;99.90
58638;DHT22;54976;51.510;7.522;2023-02-13T04:15:07;8.50;99.50
58638;DHT22;54976;51.510;7.522;2023-02-13T04:18:17;8.50;99.70
58638;DHT22;54976;51.510;7.522;2023-02-13T04:21:19;8.40;99.70
58638;DHT22;54976;51.510;7.522;2023-02-13T04:24:20;8.50;99.70
58638;DHT22;54976;51.510;7.522;2023-02-13T04:27:23;8.50;99.80
58638;DHT22;54976;51.510;7.522;2023-02-13T04:30:24;8.50;99.80
58638;DHT22;54976;51.510;7.522;2023-02-13T04:33:25;8.40;99.70
58638;DHT22;54976;51.510;7.522;2023-02-13T04:36:26;8.40;99.70
58638;DHT22;54976;51.510;7.522;2023-02-13T04:39:26;8.40;99.90
58638;DHT22;54976;51.510;7.522;2023-02-13T04:42:27;8.40;99.90
58638;DHT22;54976;51.510;7.522;2023-02-13T04:45:27;8.40;99.80
58638;DHT22;54976;51.510;7.522;2023-02-13T04:48:28;8.30;99.90
58638;DHT22;54976;51.510;7.522;2023-02-13T04:51:28;8.30;99.80
58638;DHT22;54976;51.510;7.522;2023-02-13T04:54:29;8.40;99.90
58638;DHT22;54976;51.510;7.522;2023-02-13T04:57:29;8.30;99.90
58638;DHT22;54976;51.510;7.522;2023-02-13T05:00:30;8.40;99.90
58638;DHT22;54976;51.510;7.522;2023-02-13T05:03:31;8.50;99.90
58638;DHT22;54976;51.510;7.522;2023-02-13T05:06:31;8.30;99.90
58638;DHT22;54976;51.510;7.522;2023-02-13T05:09:32;8.30;99.90
58638;DHT22;54976;51.510;7.522;2023-02-13T05:12:33;8.30;99.90
58638;DHT22;54976;51.510;7.522;2023-02-13T05:15:33;8.30;99.90
58638;DHT22;54976;51.510;7.522;2023-02-13T05:18:34;8.40;99.90
58638;DHT22;54976;51.510;7.522;2023-02-13T05:21:34;8.40;99.90
58638;DHT22;54976;51.510;7.522;2023-02-13T05:24:54;8.40;99.90
58638;DHT22;54976;51.510;7.522;2023-02-13T05:27:54;8.40;99.90
58638;DHT22;54976;51.510;7.522;2023-02-13T05:30:55;8.30;99.90
58638;DHT22;54976;51.510;7.522;2023-02-13T05:33:56;8.50;99.90
58638;DHT22;54976;51.510;7.522;2023-02-13T05:36:56;8.40;99.90
58638;DHT22;54976;51.510;7.522;2023-02-13T05:39:57;8.40;99.90
58638;DHT22;54976;51.510;7.522;2023-02-13T05:42:58;8.30;99.90
58638;DHT22;54976;51.510;7.522;2023-02-13T05:46:06;8.30;99.90
58638;DHT22;54976;51.510;7.522;2023-02-13T05:49:09;8.40;99.90
58638;DHT22;54976;51.510;7.522;2023-02-13T05:52:10;8.30;99.90
58638;DHT22;54976;51.510;7.522;2023-02-13T05:55:10;8.30;99.90
58638;DHT22;54976;51.510;7.522;2023-02-13T05:58:11;8.20;99.90
58638;DHT22;54976;51.510;7.522;2023-02-13T06:01:12;8.20;99.90
58638;DHT22;54976;51.510;7.522;2023-02-13T06:04:12;8.20;99.90
58638;DHT22;54976;51.510;7.522;2023-02-13T06:07:13;8.20;99.90
58638;DHT22;54976;51.510;7.522;2023-02-13T06:10:14;8.20;99.90
58638;DHT22;54976;51.510;7.522;2023-02-13T06:13:15;8.20;99.90
58638;DHT22;54976;51.510;7.522;2023-02-13T06:16:16;8.20;99.90
58638;DHT22;54976;51.510;7.522;2023-02-13T06:19:16;8.20;99.90
58638;DHT22;54976;51.510;7.522;2023-02-13T06:22:17;8.10;99.90
58638;DHT22;54976;51.510;7.522;2023-02-13T06:25:18;8.10;99.90
58638;DHT22;54976;51.510;7.522;2023-02-13T06:28:19;8.10;99.90
58638;DHT22;54976;51.510;7.522;2023-02-13T06:31:19;8.00;99.90
58638;DHT22;54976;51.510;7.522;2023-02-13T06:34:20;8.00;99.90
58638;DHT22;54976;51.510;7.522;2023-02-13T06:37:20;7.90;99.90
58638;DHT22;54976;51.510;7.522;2023-02-13T06:40:21;7.70;99.90
58638;DHT22;54976;51.510;7.522;2023-02-13T06:43:21;7.60;99.90
58638;DHT22;54976;51.510;7.522;2023-02-13T06:46:22;7.40;99.90
58638;DHT22;54976;51.510;7.522;2023-02-13T06:49:23;7.30;99.90
58638;DHT22;54976;51.510;7.522;2023-02-13T06:52:23;7.20;99.90
58638;DHT22;54976;51.510;7.522;2023-02-13T06:55:24;7.10;99.90
58638;DHT22;54976;51.510;7.522;2023-02-13T06:58:24;6.90;99.90
58638;DHT22;54976;51.510;7.522;2023-02-13T07:01:25;6.90;99.90
58638;DHT22;54976;51.510;7.522;2023-02-13T07:04:27;6.80;99.90
58638;DHT22;54976;51.510;7.522;2023-02-13T07:07:27;6.70;99.90
58638;DHT22;54976;51.510;7.522;2023-02-13T07:10:31;6.60;99.90
58638;DHT22;54976;51.510;7.522;2023-02-13T07:13:32;6.50;99.90
58638;DHT22;54976;51.510;7.522;2023-02-13T07:16:32;6.50;99.90
58638;DHT22;54976;51.510;7.522;2023-02-13T07:19:33;6.40;99.90
58638;DHT22;54976;51.510;7.522;2023-02-13T07:22:34;6.40;99.90
58638;DHT22;54976;51.510;7.522;2023-02-13T07:25:34;6.40;99.90
58638;DHT22;54976;51.510;7.522;2023-02-13T07:28:35;6.40;99.90
58638;DHT22;54976;51.510;7.522;2023-02-13T07:31:35;6.30;99.90
58638;DHT22;54976;51.510;7.522;2023-02-13T07:34:36;6.30;99.90
58638;DHT22;54976;51.510;7.522;2023-02-13T07:37:37;6.30;99.90
58638;DHT22;54976;51.510;7.522;2023-02-13T07:40:37;6.30;99.90
58638;DHT22;54976;51.510;7.522;2023-02-13T07:43:38;6.30;99.90
58638;DHT22;54976;51.510;7.522;2023-02-13T07:46:38;6.30;99.90
58638;DHT22;54976;51.510;7.522;2023-02-13T07:49:39;6.40;99.90
58638;DHT22;54976;51.510;7.522;2023-02-13T07:52:39;6.40;99.90
58638;DHT22;54976;51.510;7.522;2023-02-13T07:55:40;6.40;99.90
58638;DHT22;54976;51.510;7.522;2023-02-13T07:58:41;6.60;99.90
58638;DHT22;54976;51.510;7.522;2023-02-13T08:01:41;6.70;99.90
58638;DHT22;54976;51.510;7.522;2023-02-13T08:04:42;6.80;99.90
58638;DHT22;54976;51.510;7.522;2023-02-13T08:07:45;6.90;99.90
58638;DHT22;54976;51.510;7.522;2023-02-13T08:10:46;7.00;99.90
58638;DHT22;54976;51.510;7.522;2023-02-13T08:14:05;7.10;99.90
58638;DHT22;54976;51.510;7.522;2023-02-13T08:17:06;7.20;99.90
58638;DHT22;54976;51.510;7.522;2023-02-13T08:20:07;7.30;99.90
58638;DHT22;54976;51.510;7.522;2023-02-13T08:23:09;7.40;99.90
58638;DHT22;54976;51.510;7.522;2023-02-13T08:26:10;7.50;99.90
58638;DHT22;54976;51.510;7.522;2023-02-13T08:29:10;7.60;99.90
58638;DHT22;54976;51.510;7.522;2023-02-13T08:32:11;7.80;99.90
58638;DHT22;54976;51.510;7.522;2023-02-13T08:35:12;7.90;99.90
58638;DHT22;54976;51.510;7.522;2023-02-13T08:38:13;8.10;99.90
58638;DHT22;54976;51.510;7.522;2023-02-13T08:41:14;8.50;99.90
58638;DHT22;54976;51.510;7.522;2023-02-13T08:44:17;8.70;99.90
58638;DHT22;54976;51.510;7.522;2023-02-13T08:47:17;9.10;99.50
58638;DHT22;54976;51.510;7.522;2023-02-13T08:50:18;9.40;99.50
58638;DHT22;54976;51.510;7.522;2023-02-13T08:53:19;9.90;97.60
58638;DHT22;54976;51.510;7.522;2023-02-13T08:56:19;10.30;96.10
58638;DHT22;54976;51.510;7.522;2023-02-13T08:59:20;10.60;94.60
58638;DHT22;54976;51.510;7.522;2023-02-13T09:02:21;10.80;94.30
58638;DHT22;54976;51.510;7.522;2023-02-13T09:05:21;10.90;92.90
58638;DHT22;54976;51.510;7.522;2023-02-13T09:08:22;10.90;92.80
58638;DHT22;54976;51.510;7.522;2023-02-13T09:11:23;11.40;92.30
58638;DHT22;54976;51.510;7.522;2023-02-13T09:14:24;12.30;89.80
58638;DHT22;54976;51.510;7.522;2023-02-13T09:17:25;12.90;83.20
58638;DHT22;54976;51.510;7.522;2023-02-13T09:20:25;13.40;79.00
58638;DHT22;54976;51.510;7.522;2023-02-13T09:23:26;13.80;77.30
58638;DHT22;54976;51.510;7.522;2023-02-13T09:26:29;14.50;74.60
58638;DHT22;54976;51.510;7.522;2023-02-13T09:29:30;15.40;70.00
58638;DHT22;54976;51.510;7.522;2023-02-13T09:32:33;15.80;66.10
58638;DHT22;54976;51.510;7.522;2023-02-13T09:35:35;16.40;58.50
58638;DHT22;54976;51.510;7.522;2023-02-13T09:38:36;15.70;59.30
58638;DHT22;54976;51.510;7.522;2023-02-13T09:41:38;16.20;58.70
58638;DHT22;54976;51.510;7.522;2023-02-13T09:44:42;16.90;55.10
58638;DHT22;54976;51.510;7.522;2023-02-13T09:47:44;16.80;55.00
58638;DHT22;54976;51.510;7.522;2023-02-13T09:50:45;16.80;55.20
58638;DHT22;54976;51.510;7.522;2023-02-13T09:53:55;17.00;54.10
58638;DHT22;54976;51.510;7.522;2023-02-13T09:57:00;17.50;54.30
58638;DHT22;54976;51.510;7.522;2023-02-13T10:00:15;16.90;52.40
58638;DHT22;54976;51.510;7.522;2023-02-13T10:06:36;16.10;54.00
58638;DHT22;54976;51.510;7.522;2023-02-13T10:10:11;15.50;55.40
58638;DHT22;54976;51.510;7.522;2023-02-13T10:19:56;14.60;56.50
58638;DHT22;54976;51.510;7.522;2023-02-13T10:26:22;13.30;60.50
58638;DHT22;54976;51.510;7.522;2023-02-13T10:29:37;13.30;61.10
58638;DHT22;54976;51.510;7.522;2023-02-13T10:33:19;12.60;65.20
58638;DHT22;54976;51.510;7.522;2023-02-13T10:36:24;12.40;68.00
58638;DHT22;54976;51.510;7.522;2023-02-13T10:39:28;12.30;69.10
58638;DHT22;54976;51.510;7.522;2023-02-13T10:43:08;12.40;69.50
58638;DHT22;54976;51.510;7.522;2023-02-13T10:47:07;12.40;71.10
58638;DHT22;54976;51.510;7.522;2023-02-13T11:02:57;12.80;70.90
58638;DHT22;54976;51.510;7.522;2023-02-13T11:05:59;12.80;70.00
58638;DHT22;54976;51.510;7.522;2023-02-13T11:09:05;12.80;71.50
58638;DHT22;54976;51.510;7.522;2023-02-13T11:12:31;12.60;72.60
58638;DHT22;54976;51.510;7.522;2023-02-13T11:15:32;12.80;73.10
58638;DHT22;54976;51.510;7.522;2023-02-13T11:18:35;12.90;71.00
58638;DHT22;54976;51.510;7.522;2023-02-13T11:21:38;12.70;71.30
58638;DHT22;54976;51.510;7.522;2023-02-13T11:24:41;12.50;73.70
58638;DHT22;54976;51.510;7.522;2023-02-13T11:27:41;12.30;74.70
58638;DHT22;54976;51.510;7.522;2023-02-13T11:30:42;12.10;75.50
58638;DHT22;54976;51.510;7.522;2023-02-13T11:33:43;12.00;77.90
58638;DHT22;54976;51.510;7.522;2023-02-13T11:36:44;12.00;78.20
58638;DHT22;54976;51.510;7.522;2023-02-13T11:39:47;11.80;78.40
58638;DHT22;54976;51.510;7.522;2023-02-13T11:42:49;11.80;79.10
58638;DHT22;54976;51.510;7.522;2023-02-13T11:49:18;11.70;81.80
58638;DHT22;54976;51.510;7.522;2023-02-13T11:52:27;11.70;82.40
58638;DHT22;54976;51.510;7.522;2023-02-13T11:55:39;11.90;82.60
58638;DHT22;54976;51.510;7.522;2023-02-13T11:58:42;12.10;80.60
58638;DHT22;54976;51.510;7.522;2023-02-13T12:01:42;12.70;77.20
58638;DHT22;54976;51.510;7.522;2023-02-13T12:04:50;13.30;75.80
58638;DHT22;54976;51.510;7.522;2023-02-13T12:07:56;14.60;68.10
58638;DHT22;54976;51.510;7.522;2023-02-13T12:10:58;15.40;60.70
58638;DHT22;54976;51.510;7.522;2023-02-13T12:14:01;15.80;58.60
58638;DHT22;54976;51.510;7.522;2023-02-13T12:17:21;16.00;57.20
58638;DHT22;54976;51.510;7.522;2023-02-13T12:20:23;16.10;57.20
58638;DHT22;54976;51.510;7.522;2023-02-13T12:24:00;16.70;56.40
58638;DHT22;54976;51.510;7.522;2023-02-13T12:27:15;16.80;54.50
58638;DHT22;54976;51.510;7.522;2023-02-13T13:09:13;17.40;51.00
58638;DHT22;54976;51.510;7.522;2023-02-13T13:12:39;17.00;51.60
58638;DHT22;54976;51.510;7.522;2023-02-13T13:15:53;16.20;53.40
58638;DHT22;54976;51.510;7.522;2023-02-13T13:19:24;16.30;53.80
58638;DHT22;54976;51.510;7.522;2023-02-13T13:22:47;15.80;54.50
58638;DHT22;54976;51.510;7.522;2023-02-13T13:28:57;15.60;56.30
58638;DHT22;54976;51.510;7.522;2023-02-13T13:32:05;15.20;57.00
58638;DHT22;54976;51.510;7.522;2023-02-13T13:35:13;15.10;58.20
58638;DHT22;54976;51.510;7.522;2023-02-13T13:38:23;15.20;58.40
58638;DHT22;54976;51.510;7.522;2023-02-13T13:41:49;15.10;59.00
58638;DHT22;54976;51.510;7.522;2023-02-13T13:45:02;14.80;59.10
58638;DHT22;54976;51.510;7.522;2023-02-13T13:48:33;14.50;59.90
58638;DHT22;54976;51.510;7.522;2023-02-13T13:51:37;14.20;62.10
58638;DHT22;54976;51.510;7.522;2023-02-13T13:54:38;14.40;63.00
58638;DHT22;54976;51.510;7.522;2023-02-13T14:00:42;14.80;61.90
58638;DHT22;54976;51.510;7.522;2023-02-13T14:09:47;15.60;58.80
58638;DHT22;54976;51.510;7.522;2023-02-13T14:13:08;16.30;57.30
58638;DHT22;54976;51.510;7.522;2023-02-13T14:16:10;17.20;55.20
58638;DHT22;54976;51.510;7.522;2023-02-13T14:22:37;16.50;55.30
58638;DHT22;54976;51.510;7.522;2023-02-13T14:25:38;16.40;55.40
58638;DHT22;54976;51.510;7.522;2023-02-13T14:32:17;17.20;54.10
58638;DHT22;54976;51.510;7.522;2023-02-13T14:35:28;17.50;53.20
58638;DHT22;54976;51.510;7.522;2023-02-13T14:38:29;17.20;52.60
58638;DHT22;54976;51.510;7.522;2023-02-13T14:44:54;17.30;53.00
58638;DHT22;54976;51.510;7.522;2023-02-13T14:48:01;17.30;53.00
58638;DHT22;54976;51.510;7.522;2023-02-13T14:51:05;17.00;53.50
58638;DHT22;54976;51.510;7.522;2023-02-13T14:54:17;16.20;54.70
58638;DHT22;54976;51.510;7.522;2023-02-13T14:57:30;15.70;55.70
58638;DHT22;54976;51.510;7.522;2023-02-13T15:06:41;16.00;55.60
58638;DHT22;54976;51.510;7.522;2023-02-13T15:09:47;16.20;55.60
58638;DHT22;54976;51.510;7.522;2023-02-13T15:12:56;16.70;54.00
58638;DHT22;54976;51.510;7.522;2023-02-13T15:15:58;16.80;53.30
58638;DHT22;54976;51.510;7.522;2023-02-13T15:18:59;17.10;53.10
58638;DHT22;54976;51.510;7.522;2023-02-13T15:22:02;17.50;52.10
58638;DHT22;54976;51.510;7.522;2023-02-13T15:25:06;17.30;51.60
58638;DHT22;54976;51.510;7.522;2023-02-13T15:28:20;17.10;52.30
58638;DHT22;54976;51.510;7.522;2023-02-13T15:31:23;16.60;53.00
58638;DHT22;54976;51.510;7.522;2023-02-13T15:34:31;15.80;54.50
58638;DHT22;54976;51.510;7.522;2023-02-13T15:37:33;14.70;57.00
58638;DHT22;54976;51.510;7.522;2023-02-13T15:40:38;13.80;59.80
58638;DHT22;54976;51.510;7.522;2023-02-13T15:43:46;13.20;62.60
58638;DHT22;54976;51.510;7.522;2023-02-13T15:46:48;12.80;65.60
58638;DHT22;54976;51.510;7.522;2023-02-13T15:49:51;12.60;68.10
58638;DHT22;54976;51.510;7.522;2023-02-13T15:52:52;12.30;70.60
58638;DHT22;54976;51.510;7.522;2023-02-13T15:55:59;12.20;72.60
58638;DHT22;54976;51.510;7.522;2023-02-13T15:59:01;12.00;74.50
58638;DHT22;54976;51.510;7.522;2023-02-13T16:02:05;11.90;75.80
58638;DHT22;54976;51.510;7.522;2023-02-13T16:05:07;11.80;77.70
58638;DHT22;54976;51.510;7.522;2023-02-13T16:11:35;11.40;82.30
58638;DHT22;54976;51.510;7.522;2023-02-13T16:14:46;11.20;85.40
58638;DHT22;54976;51.510;7.522;2023-02-13T16:17:47;11.10;86.10
58638;DHT22;54976;51.510;7.522;2023-02-13T16:20:53;11.10;87.20
58638;DHT22;54976;51.510;7.522;2023-02-13T16:24:03;10.90;89.10
58638;DHT22;54976;51.510;7.522;2023-02-13T16:27:12;10.80;90.00
58638;DHT22;54976;51.510;7.522;2023-02-13T16:33:27;10.60;91.20
58638;DHT22;54976;51.510;7.522;2023-02-13T16:36:29;10.60;91.70
58638;DHT22;54976;51.510;7.522;2023-02-13T16:39:31;10.50;92.20
58638;DHT22;54976;51.510;7.522;2023-02-13T16:42:32;10.40;92.60
58638;DHT22;54976;51.510;7.522;2023-02-13T16:45:33;10.30;93.30
58638;DHT22;54976;51.510;7.522;2023-02-13T16:48:34;10.10;93.50
58638;DHT22;54976;51.510;7.522;2023-02-13T16:51:49;10.00;94.40
58638;DHT22;54976;51.510;7.522;2023-02-13T16:54:56;9.80;95.50
58638;DHT22;54976;51.510;7.522;2023-02-13T16:58:03;9.70;96.10
58638;DHT22;54976;51.510;7.522;2023-02-13T17:01:04;9.50;96.20
58638;DHT22;54976;51.510;7.522;2023-02-13T17:04:22;9.40;97.10
58638;DHT22;54976;51.510;7.522;2023-02-13T17:07:28;9.40;97.50
58638;DHT22;54976;51.510;7.522;2023-02-13T17:10:30;9.30;97.50
58638;DHT22;54976;51.510;7.522;2023-02-13T17:13:33;9.20;98.20
58638;DHT22;54976;51.510;7.522;2023-02-13T17:16:34;9.10;98.10
58638;DHT22;54976;51.510;7.522;2023-02-13T17:19:34;9.00;98.00
58638;DHT22;54976;51.510;7.522;2023-02-13T17:22:36;8.90;98.20
58638;DHT22;54976;51.510;7.522;2023-02-13T17:25:37;8.70;99.50
58638;DHT22;54976;51.510;7.522;2023-02-13T17:28:38;8.60;99.90
58638;DHT22;54976;51.510;7.522;2023-02-13T17:31:39;8.50;99.90
58638;DHT22;54976;51.510;7.522;2023-02-13T17:34:39;8.40;99.90
58638;DHT22;54976;51.510;7.522;2023-02-13T17:37:42;8.30;99.90
58638;DHT22;54976;51.510;7.522;2023-02-13T17:40:44;8.20;99.90
58638;DHT22;54976;51.510;7.522;2023-02-13T17:43:44;8.20;99.90
58638;DHT22;54976;51.510;7.522;2023-02-13T17:46:45;8.10;99.90
58638;DHT22;54976;51.510;7.522;2023-02-13T17:49:46;8.10;99.90
58638;DHT22;54976;51.510;7.522;2023-02-13T17:53:05;8.00;99.90
58638;DHT22;54976;51.510;7.522;2023-02-13T17:56:09;8.10;99.90
58638;DHT22;54976;51.510;7.522;2023-02-13T17:59:10;7.90;99.90
58638;DHT22;54976;51.510;7.522;2023-02-13T18:02:16;7.80;99.90
58638;DHT22;54976;51.510;7.522;2023-02-13T18:05:18;7.90;99.90
58638;DHT22;54976;51.510;7.522;2023-02-13T18:08:18;7.90;99.90
58638;DHT22;54976;51.510;7.522;2023-02-13T18:11:19;7.80;99.90
58638;DHT22;54976;51.510;7.522;2023-02-13T18:14:20;7.80;99.90
58638;DHT22;54976;51.510;7.522;2023-02-13T18:17:20;7.70;99.90
58638;DHT22;54976;51.510;7.522;2023-02-13T18:20:21;7.60;99.90
58638;DHT22;54976;51.510;7.522;2023-02-13T18:23:22;7.50;99.90
58638;DHT22;54976;51.510;7.522;2023-02-13T18:26:22;7.50;99.90
58638;DHT22;54976;51.510;7.522;2023-02-13T18:29:24;7.40;99.90
58638;DHT22;54976;51.510;7.522;2023-02-13T18:32:25;7.30;99.90
58638;DHT22;54976;51.510;7.522;2023-02-13T18:35:25;7.40;99.90
58638;DHT22;54976;51.510;7.522;2023-02-13T18:38:27;7.50;99.90
58638;DHT22;54976;51.510;7.522;2023-02-13T18:41:28;7.60;99.90
58638;DHT22;54976;51.510;7.522;2023-02-13T18:44:28;7.60;99.90
58638;DHT22;54976;51.510;7.522;2023-02-13T18:47:29;7.60;99.90
58638;DHT22;54976;51.510;7.522;2023-02-13T18:50:30;7.50;99.90
58638;DHT22;54976;51.510;7.522;2023-02-13T18:53:30;7.50;99.90
58638;DHT22;54976;51.510;7.522;2023-02-13T18:56:31;7.40;99.90
58638;DHT22;54976;51.510;7.522;2023-02-13T18:59:31;7.30;99.90
58638;DHT22;54976;51.510;7.522;2023-02-13T19:02:32;7.20;99.90
58638;DHT22;54976;51.510;7.522;2023-02-13T19:05:33;7.10;99.90
58638;DHT22;54976;51.510;7.522;2023-02-13T19:08:34;7.00;99.90
58638;DHT22;54976;51.510;7.522;2023-02-13T19:11:35;6.90;99.90
58638;DHT22;54976;51.510;7.522;2023-02-13T19:14:38;6.90;99.90
58638;DHT22;54976;51.510;7.522;2023-02-13T19:17:39;6.80;99.90
58638;DHT22;54976;51.510;7.522;2023-02-13T19:20:40;6.80;99.90
58638;DHT22;54976;51.510;7.522;2023-02-13T19:23:41;6.70;99.90
58638;DHT22;54976;51.510;7.522;2023-02-13T19:26:42;6.60;99.90
58638;DHT22;54976;51.510;7.522;2023-02-13T19:29:42;6.60;99.90
58638;DHT22;54976;51.510;7.522;2023-02-13T19:32:43;6.50;99.90
58638;DHT22;54976;51.510;7.522;2023-02-13T19:35:43;6.50;99.90
58638;DHT22;54976;51.510;7.522;2023-02-13T19:38:44;6.40;99.90
58638;DHT22;54976;51.510;7.522;2023-02-13T19:41:45;6.40;99.90
58638;DHT22;54976;51.510;7.522;2023-02-13T19:44:46;6.40;99.90
58638;DHT22;54976;51.510;7.522;2023-02-13T19:47:46;6.40;99.90
58638;DHT22;54976;51.510;7.522;2023-02-13T19:50:47;6.40;99.90
58638;DHT22;54976;51.510;7.522;2023-02-13T19:53:47;6.30;99.90
58638;DHT22;54976;51.510;7.522;2023-02-13T19:56:48;6.30;99.90
58638;DHT22;54976;51.510;7.522;2023-02-13T19:59:49;6.30;99.90
58638;DHT22;54976;51.510;7.522;2023-02-13T20:02:49;6.30;99.90
58638;DHT22;54976;51.510;7.522;2023-02-13T20:05:50;6.20;99.90
58638;DHT22;54976;51.510;7.522;2023-02-13T20:08:51;6.20;99.90
58638;DHT22;54976;51.510;7.522;2023-02-13T20:11:52;6.20;99.90
58638;DHT22;54976;51.510;7.522;2023-02-13T20:14:54;6.10;99.90
58638;DHT22;54976;51.510;7.522;2023-02-13T20:17:54;6.20;99.90
58638;DHT22;54976;51.510;7.522;2023-02-13T20:20:55;6.10;99.90
58638;DHT22;54976;51.510;7.522;2023-02-13T20:23:56;6.10;99.90
58638;DHT22;54976;51.510;7.522;2023-02-13T20:26:57;6.10;99.90
58638;DHT22;54976;51.510;7.522;2023-02-13T20:29:58;6.00;99.90
58638;DHT22;54976;51.510;7.522;2023-02-13T20:32:58;6.00;99.90
58638;DHT22;54976;51.510;7.522;2023-02-13T20:36:10;6.00;99.90
58638;DHT22;54976;51.510;7.522;2023-02-13T20:39:10;6.00;99.90
58638;DHT22;54976;51.510;7.522;2023-02-13T20:42:11;5.90;99.90
58638;DHT22;54976;51.510;7.522;2023-02-13T20:45:12;5.90;99.90
58638;DHT22;54976;51.510;7.522;2023-02-13T20:48:12;5.80;99.90
58638;DHT22;54976;51.510;7.522;2023-02-13T20:51:15;5.80;99.90
58638;DHT22;54976;51.510;7.522;2023-02-13T20:54:16;5.80;99.90
58638;DHT22;54976;51.510;7.522;2023-02-13T20:57:16;5.80;99.90
58638;DHT22;54976;51.510;7.522;2023-02-13T21:00:17;5.80;99.90
58638;DHT22;54976;51.510;7.522;2023-02-13T21:03:18;5.80;99.90
58638;DHT22;54976;51.510;7.522;2023-02-13T21:09:20;6.00;99.90
58638;DHT22;54976;51.510;7.522;2023-02-13T21:12:21;6.00;99.90
58638;DHT22;54976;51.510;7.522;2023-02-13T21:15:21;6.20;99.90
58638;DHT22;54976;51.510;7.522;2023-02-13T21:18:22;6.30;99.90
58638;DHT22;54976;51.510;7.522;2023-02-13T21:21:25;6.50;99.90
58638;DHT22;54976;51.510;7.522;2023-02-13T21:24:26;6.80;99.90
58638;DHT22;54976;51.510;7.522;2023-02-13T21:27:27;7.00;99.90
58638;DHT22;54976;51.510;7.522;2023-02-13T21:30:28;7.10;99.90
58638;DHT22;54976;51.510;7.522;2023-02-13T21:33:28;7.30;99.90
58638;DHT22;54976;51.510;7.522;2023-02-13T21:36:29;7.40;99.90
58638;DHT22;54976;51.510;7.522;2023-02-13T21:39:30;7.40;99.90
58638;DHT22;54976;51.510;7.522;2023-02-13T21:42:31;7.40;99.90
58638;DHT22;54976;51.510;7.522;2023-02-13T21:45:31;7.50;99.90
58638;DHT22;54976;51.510;7.522;2023-02-13T21:48:32;7.60;99.90
58638;DHT22;54976;51.510;7.522;2023-02-13T21:51:35;7.70;99.90
58638;DHT22;54976;51.510;7.522;2023-02-13T21:54:35;7.70;99.70
58638;DHT22;54976;51.510;7.522;2023-02-13T21:57:36;7.70;99.50
58638;DHT22;54976;51.510;7.522;2023-02-13T22:00:37;7.70;99.30
58638;DHT22;54976;51.510;7.522;2023-02-13T22:03:38;7.70;99.40
58638;DHT22;54976;51.510;7.522;2023-02-13T22:06:39;7.70;99.00
58638;DHT22;54976;51.510;7.522;2023-02-13T22:09:39;7.80;98.70
58638;DHT22;54976;51.510;7.522;2023-02-13T22:12:40;7.80;98.60
58638;DHT22;54976;51.510;7.522;2023-02-13T22:15:40;7.80;98.60
58638;DHT22;54976;51.510;7.522;2023-02-13T22:18:43;7.80;98.50
58638;DHT22;54976;51.510;7.522;2023-02-13T22:21:44;7.80;98.10